Time;durP1;ratioP1;P1;durP2;ratioP2;P2;SDS_P1;SDS_P2;PMS_P1;PMS_P2;Temp;Humidity;BMP_temperature;BMP_pressure;BME280_temperature;BME280_humidity;BME280_pressure;Samples;Min_cycle;Max_cycle;Signal;HPM_P1;HPM_P2
2024/02/01 00:02:03;;;;;;;15.23;11.50;;;7.00;99.90;;;7.93;100.00;99074.41;10433989;28;20326;-66
2024/02/01 00:07:06;;;;;;;12.20;10.87;;;7.20;99.90;;;8.08;100.00;99083.38;10428769;28;20582;-63
2024/02/01 00:12:11;;;;;;;14.90;13.37;;;7.30;99.90;;;7.95;100.00;99090.69;10429811;28;20668;-63
2024/02/01 00:17:14;;;;;;;12.67;11.43;;;7.30;99.90;;;7.98;100.00;99090.94;10427276;28;20615;-63
2024/02/01 00:22:17;;;;;;;12.10;10.90;;;7.40;99.90;;;8.16;100.00;99086.59;10429615;28;20225;-63
2024/02/01 00:27:36;;;;;;;11.93;10.77;;;7.50;99.90;;;8.32;100.00;99078.59;10415878;28;20637;-63
2024/02/01 00:32:39;;;;;;;12.87;10.73;;;7.70;99.90;;;8.41;100.00;99079.41;10385457;28;20221;-63
2024/02/01 00:37:43;;;;;;;12.67;11.53;;;7.70;99.90;;;8.46;100.00;99064.50;10384768;28;20320;-63
2024/02/01 00:42:48;;;;;;;12.37;11.17;;;7.70;99.90;;;8.38;100.00;99058.72;10387615;28;20240;-63
2024/02/01 00:47:51;;;;;;;11.77;10.53;;;7.70;99.90;;;8.31;100.00;99053.88;10394767;28;20708;-63
2024/02/01 00:52:54;;;;;;;12.70;11.40;;;7.60;99.90;;;8.36;100.00;99060.28;10393803;28;20230;-63
2024/02/01 00:57:59;;;;;;;13.13;10.23;;;7.70;99.90;;;8.40;100.00;99061.44;10386804;28;20309;-63
2024/02/01 01:03:02;;;;;;;11.60;10.37;;;7.70;99.90;;;8.50;100.00;99061.47;10380598;28;20217;-64
2024/02/01 01:08:07;;;;;;;11.82;10.63;;;7.80;99.90;;;8.59;100.00;99063.91;10383197;28;20234;-63
2024/02/01 01:13:11;;;;;;;10.77;9.67;;;7.90;99.90;;;8.68;100.00;99057.03;10384176;28;20229;-64
2024/02/01 01:18:14;;;;;;;13.67;9.40;;;8.00;99.90;;;8.70;100.00;99058.03;10384244;28;20312;-64
2024/02/01 01:23:18;;;;;;;10.23;8.43;;;8.00;99.90;;;8.86;98.72;99057.66;10428621;28;20231;-64
2024/02/01 01:28:22;;;;;;;9.73;8.43;;;8.10;99.90;;;8.81;98.87;99057.25;10425412;28;20232;-64
2024/02/01 01:33:25;;;;;;;10.57;9.23;;;8.10;99.90;;;8.71;98.91;99067.47;10419650;28;20229;-64
2024/02/01 01:38:28;;;;;;;8.47;7.63;;;8.10;99.90;;;8.71;99.16;99087.88;10424972;28;20226;-62
2024/02/01 01:43:33;;;;;;;9.80;7.80;;;8.10;99.90;;;8.80;97.89;99086.97;10420351;28;20229;-63
2024/02/01 01:48:38;;;;;;;10.50;8.77;;;8.10;99.90;;;8.78;98.31;99082.50;10425564;28;21079;-64
2024/02/01 01:53:44;;;;;;;10.02;8.23;;;8.10;99.90;;;8.80;98.42;99086.06;10426224;28;20654;-64
2024/02/01 01:58:50;;;;;;;8.77;7.87;;;8.10;99.90;;;8.90;96.48;99088.66;10427420;28;20224;-62
2024/02/01 02:03:57;;;;;;;10.93;9.20;;;8.20;99.90;;;9.11;96.13;99079.31;10425834;28;20231;-63
2024/02/01 02:09:00;;;;;;;11.10;9.07;;;8.40;99.90;;;9.13;96.02;99094.72;10429837;28;20213;-60
2024/02/01 02:14:11;;;;;;;10.17;9.07;;;8.50;99.90;;;9.14;95.99;99093.97;10428893;28;20224;-62
2024/02/01 02:19:14;;;;;;;13.07;11.32;;;8.40;99.90;;;9.22;95.79;99088.75;10403540;28;20225;-62
2024/02/01 02:24:20;;;;;;;12.40;11.10;;;8.50;99.90;;;9.09;96.68;99090.16;10390203;28;20221;-64
2024/02/01 02:29:23;;;;;;;12.30;10.85;;;8.50;99.90;;;9.12;96.68;99085.31;10397066;28;20222;-63
2024/02/01 02:34:27;;;;;;;12.15;10.95;;;8.40;99.90;;;9.23;95.82;99080.31;10396306;28;20230;-62
2024/02/01 02:39:31;;;;;;;13.73;10.75;;;8.50;99.90;;;9.29;96.21;99084.16;10401465;28;20226;-63
2024/02/01 02:44:34;;;;;;;11.83;10.63;;;8.50;99.90;;;9.23;96.16;99087.97;10390528;28;20615;-63
2024/02/01 02:49:38;;;;;;;12.98;10.65;;;8.50;99.90;;;9.21;96.33;99075.84;10394064;28;20222;-63
2024/02/01 02:54:42;;;;;;;11.67;10.47;;;8.40;99.90;;;9.02;97.75;99092.19;10392237;28;20230;-63
2024/02/01 02:59:45;;;;;;;11.70;10.50;;;8.30;99.90;;;8.98;97.56;99092.69;10390139;28;20252;-62
2024/02/01 03:04:48;;;;;;;12.37;11.07;;;8.30;99.90;;;8.98;97.60;99085.03;10386588;28;20329;-62
2024/02/01 03:09:53;;;;;;;12.45;10.15;;;8.30;99.90;;;8.82;98.02;99069.25;10392280;28;20226;-64
2024/02/01 03:14:56;;;;;;;11.80;10.60;;;8.00;99.90;;;8.75;99.09;99079.69;10387368;28;20236;-64
2024/02/01 03:19:59;;;;;;;12.85;10.90;;;8.00;99.90;;;8.63;98.87;99063.38;10393150;28;20222;-63
2024/02/01 03:25:04;;;;;;;10.97;9.90;;;7.90;99.90;;;8.57;98.86;99072.28;10388456;28;20316;-63
2024/02/01 03:30:11;;;;;;;9.70;8.47;;;7.90;99.90;;;8.49;98.44;99070.75;10388130;28;20799;-62
2024/02/01 03:35:16;;;;;;;11.10;10.07;;;7.80;99.90;;;8.51;97.83;99066.69;10393339;28;20753;-64
2024/02/01 03:40:20;;;;;;;9.37;8.47;;;7.80;99.90;;;8.42;98.91;99055.72;10387340;28;20621;-62
2024/02/01 03:45:24;;;;;;;9.97;8.67;;;7.70;99.90;;;8.45;98.18;99050.88;10383124;28;20226;-62
2024/02/01 03:50:27;;;;;;;9.20;8.30;;;7.70;99.90;;;8.42;98.48;99049.75;10389867;28;20313;-64
2024/02/01 03:55:31;;;;;;;11.37;8.70;;;7.70;99.90;;;8.40;98.85;99047.06;10387651;28;20230;-64
2024/02/01 04:00:35;;;;;;;10.13;8.23;;;7.70;99.90;;;8.39;98.76;99055.47;10392662;28;20232;-63
2024/02/01 04:05:38;;;;;;;10.00;9.00;;;7.70;99.90;;;8.41;98.82;99042.84;10389535;28;20601;-61
2024/02/01 04:10:44;;;;;;;9.93;9.03;;;7.70;99.90;;;8.37;98.78;99053.50;10386043;28;20779;-62
2024/02/01 04:15:48;;;;;;;11.07;10.00;;;7.70;99.90;;;8.34;99.05;99041.41;10391940;28;20719;-61
2024/02/01 04:20:51;;;;;;;9.80;8.27;;;7.60;99.90;;;8.37;99.44;99043.31;10408752;28;20610;-62
2024/02/01 04:25:55;;;;;;;8.97;8.07;;;7.70;99.90;;;8.36;99.26;99055.19;10398057;28;20280;-62
2024/02/01 04:31:01;;;;;;;10.60;7.77;;;7.70;99.90;;;8.40;98.78;99062.34;10392364;28;20238;-63
2024/02/01 04:36:07;;;;;;;7.90;7.10;;;7.70;99.90;;;8.42;98.43;99059.94;10389979;28;20271;-62
2024/02/01 04:41:12;;;;;;;8.32;7.57;;;7.70;99.90;;;8.38;98.57;99048.53;10397473;28;20671;-61
2024/02/01 04:46:15;;;;;;;8.97;8.17;;;7.70;99.90;;;8.25;100.00;99048.28;10394754;28;20534;-62
2024/02/01 04:51:18;;;;;;;9.10;8.30;;;7.60;99.90;;;8.18;100.00;99039.19;10387459;28;20612;-61
2024/02/01 04:56:22;;;;;;;10.23;9.17;;;7.60;99.90;;;8.13;100.00;99041.38;10408555;28;20346;-63
2024/02/01 05:01:26;;;;;;;8.00;7.20;;;7.60;99.90;;;8.09;100.00;99049.50;10388588;28;20233;-62
2024/02/01 05:06:29;;;;;;;9.00;7.70;;;7.50;99.90;;;8.09;100.00;99044.41;10402318;28;20594;-62
2024/02/01 05:11:34;;;;;;;9.60;8.43;;;7.50;99.90;;;8.00;100.00;99041.06;10386900;28;20594;-62
2024/02/01 05:16:37;;;;;;;8.53;7.77;;;7.50;99.90;;;8.00;100.00;99028.34;10385725;28;20266;-63
2024/02/01 05:21:40;;;;;;;7.93;7.13;;;7.50;99.90;;;8.02;100.00;99031.91;10376844;28;20237;-63
2024/02/01 05:26:50;;;;;;;8.33;7.53;;;7.50;99.90;;;8.02;100.00;99037.00;10382690;28;20218;-63
2024/02/01 05:31:56;;;;;;;8.73;7.60;;;7.50;99.90;;;8.00;100.00;99032.53;10387449;28;20241;-63
2024/02/01 05:36:59;;;;;;;10.53;9.27;;;7.40;99.90;;;7.95;100.00;99023.63;10402759;28;20233;-62
2024/02/01 05:42:06;;;;;;;9.27;8.37;;;7.40;99.90;;;7.88;100.00;99018.00;10404561;28;20232;-62
2024/02/01 05:47:09;;;;;;;13.23;11.83;;;7.30;99.90;;;7.82;100.00;99016.59;10398700;28;20230;-61
2024/02/01 05:52:12;;;;;;;10.90;9.90;;;7.30;99.90;;;7.82;100.00;99006.41;10411489;28;20232;-62
2024/02/01 05:57:17;;;;;;;10.07;9.03;;;7.30;99.90;;;7.81;100.00;99019.88;10417086;28;20234;-61
2024/02/01 06:02:20;;;;;;;10.17;8.60;;;7.30;99.90;;;7.81;100.00;99013.16;10408164;28;20232;-62
2024/02/01 06:07:25;;;;;;;8.90;8.00;;;7.20;99.90;;;7.76;100.00;99021.16;10403630;28;20225;-61
2024/02/01 06:12:29;;;;;;;8.73;7.93;;;7.20;99.90;;;7.69;100.00;99019.72;10397050;28;20277;-62
2024/02/01 06:17:38;;;;;;;8.13;7.33;;;7.20;99.90;;;7.71;100.00;99022.41;10402543;28;20241;-61
2024/02/01 06:22:41;;;;;;;11.67;10.57;;;7.20;99.90;;;7.70;100.00;99040.94;10406387;28;20317;-62
2024/02/01 06:27:47;;;;;;;13.53;12.23;;;7.10;99.90;;;7.65;100.00;99050.75;10396778;28;20228;-63
2024/02/01 06:32:50;;;;;;;13.00;11.57;;;7.10;99.90;;;7.59;100.00;99052.75;10413954;28;20229;-63
2024/02/01 06:38:04;;;;;;;12.30;10.77;;;7.10;99.90;;;7.57;100.00;99064.44;10399600;28;20234;-62
2024/02/01 06:43:17;;;;;;;12.23;10.97;;;7.00;99.90;;;7.55;100.00;99077.00;10396159;28;20856;-63
2024/02/01 06:48:30;;;;;;;15.47;12.20;;;7.00;99.90;;;7.46;100.00;99071.13;10423527;28;20225;-62
2024/02/01 06:53:37;;;;;;;51.47;32.37;;;6.90;99.90;;;7.43;100.00;99081.03;10392232;28;20270;-62
2024/02/01 06:58:49;;;;;;;36.93;24.77;;;6.90;99.90;;;7.44;100.00;99085.38;10404699;28;20357;-62
2024/02/01 07:04:07;;;;;;;21.17;16.63;;;6.90;99.90;;;7.43;100.00;99093.75;10404004;28;20230;-62
2024/02/01 07:09:36;;;;;;;19.90;17.17;;;6.90;99.90;;;7.41;100.00;99097.78;10419103;28;20706;-62
2024/02/01 07:14:48;;;;;;;20.07;17.17;;;6.90;99.90;;;7.35;100.00;99108.31;10401143;28;20259;-61
2024/02/01 07:19:56;;;;;;;54.40;36.00;;;6.90;99.90;;;7.46;100.00;99096.56;10416784;28;20229;-62
2024/02/01 07:25:09;;;;;;;27.77;20.60;;;6.90;99.90;;;7.39;100.00;99078.97;10415012;28;20245;-62
2024/02/01 08:02:49;;;;;;;18.77;15.97;;;6.90;99.90;;;7.43;100.00;99092.09;10400675;28;20226;-63
2024/02/01 08:07:54;;;;;;;14.87;12.63;;;6.90;99.90;;;7.47;100.00;99088.19;10395971;28;20317;-62
2024/02/01 08:13:04;;;;;;;17.73;15.47;;;7.00;99.90;;;7.50;100.00;99093.56;10399900;28;20226;-62
2024/02/01 08:18:10;;;;;;;19.00;15.37;;;7.00;99.90;;;7.46;100.00;99099.09;10427061;28;20236;-64
2024/02/01 08:23:19;;;;;;;15.83;14.10;;;6.90;99.90;;;7.47;100.00;99102.53;10390290;28;20553;-63
2024/02/01 08:28:32;;;;;;;19.70;15.03;;;6.90;99.90;;;7.50;100.00;99113.91;10390605;28;20226;-63
2024/02/01 08:33:40;;;;;;;19.13;14.00;;;7.00;99.90;;;7.52;100.00;99104.72;10397866;28;20717;-62
2024/02/01 08:38:44;;;;;;;16.80;13.63;;;7.00;99.90;;;7.53;100.00;99123.47;10401793;28;20237;-63
2024/02/01 08:43:47;;;;;;;15.53;12.70;;;7.00;99.90;;;7.57;100.00;99115.31;10402707;28;20233;-63
2024/02/01 08:48:52;;;;;;;15.40;11.17;;;7.10;99.90;;;7.65;100.00;99124.53;10411990;28;20324;-62
2024/02/01 08:53:55;;;;;;;15.70;12.67;;;7.10;99.90;;;7.66;100.00;99124.66;10402187;28;20356;-63
2024/02/01 08:58:58;;;;;;;18.13;16.30;;;7.10;99.90;;;7.70;100.00;99132.56;10400638;28;20570;-63
2024/02/01 09:04:13;;;;;;;14.00;12.47;;;7.10;99.90;;;7.77;100.00;99142.53;10402097;28;20248;-63
2024/02/01 09:09:28;;;;;;;14.97;11.80;;;7.20;99.90;;;7.77;100.00;99135.78;10392530;28;20549;-63
2024/02/01 09:14:34;;;;;;;17.63;12.63;;;7.20;99.90;;;7.78;100.00;99139.22;10394803;28;20600;-63
2024/02/01 09:19:38;;;;;;;14.50;11.33;;;7.20;99.90;;;7.75;100.00;99152.56;10410404;28;20222;-63
2024/02/01 09:24:41;;;;;;;19.20;11.93;;;7.20;99.90;;;7.82;100.00;99154.03;10397667;28;20729;-63
2024/02/01 09:29:45;;;;;;;12.47;10.70;;;7.30;99.90;;;7.77;100.00;99150.19;10400167;28;20256;-63
2024/02/01 09:34:50;;;;;;;10.53;9.43;;;7.30;99.90;;;7.90;100.00;99148.84;10416055;28;20319;-63
2024/02/01 09:39:53;;;;;;;7.20;6.70;;;7.30;99.90;;;8.07;100.00;99152.00;10404372;28;20315;-63
2024/02/01 09:44:58;;;;;;;7.90;6.97;;;7.40;99.90;;;7.85;100.00;99161.94;10378757;28;20230;-63
2024/02/01 09:50:05;;;;;;;13.87;10.23;;;7.40;99.90;;;7.98;100.00;99162.22;10398956;28;20592;-62
2024/02/01 09:55:08;;;;;;;16.43;13.40;;;7.40;99.90;;;8.02;100.00;99159.22;10413429;23;20340;-59
2024/02/01 10:00:17;;;;;;;7.70;6.50;;;7.50;99.90;;;8.13;100.00;99166.16;10438206;28;20229;-60
2024/02/01 10:05:23;;;;;;;7.93;7.13;;;7.50;99.90;;;8.35;100.00;99168.91;10440355;28;20229;-63
2024/02/01 10:10:26;;;;;;;6.90;6.27;;;7.80;99.90;;;8.57;100.00;99179.31;10437408;28;20232;-60
2024/02/01 10:15:30;;;;;;;9.83;8.03;;;8.00;99.90;;;8.64;100.00;99184.94;10434006;28;20229;-62
2024/02/01 10:20:35;;;;;;;11.57;8.27;;;8.00;99.90;;;8.53;100.00;99184.94;10433297;28;20262;-60
2024/02/01 10:25:42;;;;;;;9.03;7.50;;;8.00;99.90;;;8.54;100.00;99180.72;10424015;28;20225;-62
2024/02/01 10:30:46;;;;;;;8.20;6.60;;;8.00;99.90;;;8.67;100.00;99180.09;10438623;28;20240;-60
2024/02/01 10:35:52;;;;;;;11.07;8.33;;;8.10;99.90;;;8.69;100.00;99169.28;10429387;28;20605;-62
2024/02/01 10:41:02;;;;;;;10.00;7.30;;;8.10;99.90;;;8.72;100.00;99163.56;10441988;28;20232;-62
2024/02/01 10:46:08;;;;;;;10.90;8.55;;;8.20;99.90;;;8.73;100.00;99178.09;10431966;28;20234;-63
2024/02/01 10:51:15;;;;;;;8.13;6.20;;;8.20;99.90;;;8.82;100.00;99150.84;10433497;28;20230;-60
2024/02/01 10:56:19;;;;;;;7.67;6.97;;;8.20;99.90;;;8.76;100.00;99152.88;10423572;28;20612;-64
2024/02/01 11:01:25;;;;;;;7.13;5.57;;;8.20;99.90;;;8.89;100.00;99142.94;10433746;28;20631;-59
2024/02/01 11:06:31;;;;;;;10.05;8.80;;;8.20;99.90;;;8.87;100.00;99144.47;10435500;28;20237;-63
2024/02/01 11:11:36;;;;;;;9.57;7.88;;;8.20;99.90;;;8.95;100.00;99138.34;10436077;28;20225;-60
2024/02/01 11:16:41;;;;;;;9.10;5.78;;;8.30;99.90;;;8.88;100.00;99143.72;10427573;28;20667;-62
2024/02/01 11:21:51;;;;;;;7.70;5.20;;;8.20;99.90;;;8.91;100.00;99146.50;10429323;28;20597;-62
2024/02/01 11:26:57;;;;;;;5.87;5.27;;;8.20;99.90;;;8.88;100.00;99146.25;10431502;28;20261;-62
2024/02/01 11:32:05;;;;;;;5.13;4.60;;;8.20;99.90;;;8.69;100.00;99143.78;10423244;28;20309;-59
2024/02/01 11:37:12;;;;;;;7.07;6.30;;;8.10;99.90;;;8.65;100.00;99143.44;10433083;28;20244;-64
2024/02/01 11:42:15;;;;;;;6.73;5.50;;;8.10;99.90;;;8.66;100.00;99140.97;10430788;28;20656;-62
2024/02/01 11:47:33;;;;;;;8.63;7.83;;;8.10;99.90;;;8.66;100.00;99140.09;10440650;28;20233;-62
2024/02/01 11:52:49;;;;;;;5.13;4.63;;;8.10;99.90;;;8.69;100.00;99138.69;10435413;28;20271;-60
2024/02/01 11:57:57;;;;;;;5.43;4.90;;;8.10;99.90;;;8.59;100.00;99141.25;10434634;28;20246;-63
2024/02/01 12:03:00;;;;;;;4.90;4.50;;;8.00;99.90;;;8.60;100.00;99137.91;10435232;28;20315;-59
2024/02/01 12:08:07;;;;;;;4.67;4.27;;;8.00;99.90;;;8.70;100.00;99129.38;10427288;28;20234;-62
2024/02/01 12:13:13;;;;;;;5.70;5.20;;;8.00;99.90;;;8.69;100.00;99125.94;10434235;28;20231;-64
2024/02/01 12:18:16;;;;;;;5.18;4.78;;;8.10;99.90;;;8.69;100.00;99132.72;10439823;28;20271;-62
2024/02/01 12:23:20;;;;;;;5.97;5.50;;;8.10;99.90;;;8.66;100.00;99128.25;10425060;28;20229;-62
2024/02/01 12:28:24;;;;;;;6.47;5.87;;;8.10;99.90;;;8.74;100.00;99127.25;10430539;28;20229;-64
2024/02/01 12:33:27;;;;;;;7.63;6.88;;;8.20;99.90;;;8.87;100.00;99120.63;10441063;28;20812;-61
2024/02/01 12:38:40;;;;;;;7.78;7.10;;;8.20;99.90;;;8.75;100.00;99103.53;10436154;28;20731;-61
2024/02/01 12:43:45;;;;;;;5.97;5.45;;;8.20;99.90;;;8.73;100.00;99119.47;10438016;28;20313;-65
2024/02/01 12:48:48;;;;;;;6.70;5.77;;;8.20;99.90;;;8.78;100.00;99118.19;10431119;28;20232;-62
2024/02/01 12:53:54;;;;;;;5.73;5.20;;;8.20;99.90;;;8.80;100.00;99115.00;10437193;28;20322;-64
2024/02/01 12:59:01;;;;;;;6.00;5.45;;;8.30;99.90;;;8.85;100.00;99130.69;10423048;28;20283;-61
2024/02/01 13:04:05;;;;;;;7.00;6.50;;;8.30;99.90;;;8.86;100.00;99137.56;10433423;28;20228;-64
2024/02/01 13:09:28;;;;;;;6.47;5.90;;;8.30;99.90;;;8.97;100.00;99146.13;10435672;28;20311;-63
2024/02/01 13:14:31;;;;;;;6.68;6.07;;;8.30;99.90;;;8.88;100.00;99148.81;10428792;28;20538;-64
2024/02/01 13:19:40;;;;;;;6.22;5.72;;;8.30;99.90;;;8.93;100.00;99139.91;10442119;28;20228;-63
2024/02/01 13:24:46;;;;;;;8.35;7.55;;;8.30;99.90;;;8.86;100.00;99147.78;10428883;28;20247;-64
2024/02/01 13:29:49;;;;;;;8.52;7.82;;;8.20;99.90;;;8.83;100.00;99142.41;10434261;28;20723;-64
2024/02/01 13:34:52;;;;;;;7.50;6.80;;;8.20;99.90;;;8.86;100.00;99137.56;10436811;28;20239;-64
2024/02/01 13:39:57;;;;;;;6.72;6.18;;;8.30;99.90;;;8.86;100.00;99147.78;10432369;28;20232;-64
2024/02/01 13:45:01;;;;;;;6.38;5.88;;;8.30;99.90;;;9.03;100.00;99155.19;10434809;28;20327;-63
2024/02/01 13:50:05;;;;;;;6.65;6.05;;;8.40;99.90;;;8.98;100.00;99156.44;10441300;28;20311;-64
2024/02/01 13:55:14;;;;;;;6.80;6.30;;;8.40;99.90;;;8.90;100.00;99154.00;10436889;28;20962;-62
2024/02/01 14:00:19;;;;;;;8.15;7.45;;;8.30;99.90;;;8.91;100.00;99151.63;10431928;28;20624;-65
2024/02/01 14:05:24;;;;;;;7.82;7.05;;;8.40;99.90;;;8.95;100.00;99158.75;10420181;28;20443;-64
2024/02/01 14:10:28;;;;;;;8.38;7.68;;;8.40;99.90;;;8.93;100.00;99161.94;10426183;28;20335;-64
2024/02/01 14:15:32;;;;;;;8.65;7.85;;;8.30;99.90;;;9.00;100.00;99160.03;10441052;28;20228;-65
2024/02/01 14:20:35;;;;;;;8.02;7.43;;;8.40;99.90;;;8.94;100.00;99151.88;10438352;28;20229;-63
2024/02/01 14:25:39;;;;;;;8.38;7.68;;;8.40;99.90;;;8.92;100.00;99157.59;10452965;28;20243;-64
2024/02/01 14:30:43;;;;;;;8.07;7.30;;;8.30;99.90;;;8.85;100.00;99166.41;10455669;28;20719;-64
2024/02/01 14:35:46;;;;;;;10.57;9.68;;;8.30;99.90;;;8.88;100.00;99170.88;10435189;28;20239;-63
2024/02/01 14:40:50;;;;;;;8.88;8.18;;;8.30;99.90;;;8.87;100.00;99169.97;10441514;28;20260;-64
2024/02/01 14:45:54;;;;;;;10.05;9.05;;;8.30;99.90;;;8.93;100.00;99180.69;10450270;28;20259;-64
2024/02/01 14:50:57;;;;;;;10.95;9.95;;;8.40;99.90;;;8.96;100.00;99188.59;10438448;28;20221;-63
2024/02/01 14:56:02;;;;;;;13.38;12.05;;;8.40;99.90;;;9.03;100.00;99198.53;10438420;28;22267;-64
2024/02/01 15:01:06;;;;;;;14.13;12.70;;;8.40;99.90;;;8.92;100.00;99196.72;10445448;28;20232;-63
2024/02/01 15:06:09;;;;;;;10.07;9.23;;;8.30;99.90;;;8.91;100.00;99200.06;10450632;28;20233;-64
2024/02/01 15:11:17;;;;;;;11.25;10.27;;;8.30;99.90;;;8.89;100.00;99198.13;10437181;28;20598;-64
2024/02/01 15:16:20;;;;;;;9.70;8.90;;;8.30;99.90;;;8.91;100.00;99196.63;10439386;28;20224;-63
2024/02/01 15:21:27;;;;;;;11.70;10.70;;;8.20;99.90;;;8.88;100.00;99202.34;10440097;28;20604;-63
2024/02/01 15:26:33;;;;;;;13.13;11.93;;;8.20;99.90;;;8.85;100.00;99207.19;10429283;28;20454;-64
2024/02/01 15:31:38;;;;;;;10.55;9.65;;;8.30;99.90;;;8.82;100.00;99195.84;10427345;28;20222;-64
2024/02/01 15:36:42;;;;;;;12.77;11.63;;;8.30;99.90;;;8.88;100.00;99197.25;10435283;28;20228;-62
2024/02/01 15:41:47;;;;;;;11.82;10.60;;;8.20;99.90;;;8.82;100.00;99206.03;10424141;28;20238;-63
2024/02/01 15:46:51;;;;;;;11.50;10.40;;;8.20;99.90;;;8.77;100.00;99208.19;10432926;28;20276;-63
2024/02/01 15:51:54;;;;;;;11.63;10.50;;;8.20;99.90;;;8.77;100.00;99210.72;10426473;28;20233;-63
2024/02/01 15:57:00;;;;;;;13.20;12.02;;;8.20;99.90;;;8.73;100.00;99208.69;10417691;28;20232;-62
2024/02/01 16:02:03;;;;;;;16.17;14.65;;;8.10;99.90;;;8.68;100.00;99210.84;10418787;28;20280;-65
2024/02/01 16:07:06;;;;;;;12.05;10.98;;;8.10;99.90;;;8.68;100.00;99218.47;10408094;28;20229;-65
2024/02/01 16:12:19;;;;;;;14.38;12.88;;;8.00;99.90;;;8.60;100.00;99222.03;10402129;28;20232;-65
2024/02/01 16:17:22;;;;;;;12.45;11.27;;;8.00;99.90;;;8.53;100.00;99228.25;10407261;28;20233;-63
2024/02/01 16:22:45;;;;;;;13.38;12.15;;;8.00;99.90;;;8.46;100.00;99233.56;10400483;28;20229;-63
2024/02/01 16:28:03;;;;;;;15.95;14.40;;;7.90;99.90;;;8.46;100.00;99236.09;10406521;28;20616;-64
2024/02/01 16:33:15;;;;;;;17.17;15.57;;;7.80;99.90;;;8.36;100.00;99233.50;10403293;28;20311;-63
2024/02/01 16:38:23;;;;;;;17.05;15.52;;;7.70;99.90;;;8.27;100.00;99235.22;10408028;28;20740;-64
2024/02/01 16:43:37;;;;;;;15.37;13.97;;;7.70;99.90;;;8.18;100.00;99230.19;10411286;28;20236;-64
2024/02/01 16:48:41;;;;;;;17.40;15.67;;;7.60;99.90;;;8.02;100.00;99243.25;10406936;28;20731;-63
2024/02/01 16:53:44;;;;;;;15.80;14.30;;;7.40;99.90;;;7.90;100.00;99254.88;10410236;28;20237;-63
2024/02/01 16:58:53;;;;;;;15.00;13.50;;;7.30;99.90;;;7.81;100.00;99280.41;10400931;28;20233;-64
2024/02/01 17:03:59;;;;;;;17.47;15.77;;;7.20;99.90;;;7.75;100.00;99294.19;10405683;28;20240;-65
2024/02/01 17:09:05;;;;;;;20.47;18.30;;;7.10;99.90;;;7.75;100.00;99296.75;10415454;28;20700;-64
2024/02/01 17:14:27;;;;;;;21.20;18.37;;;7.10;99.90;;;7.73;100.00;99306.81;10405725;28;20237;-61
2024/02/01 17:19:33;;;;;;;22.80;20.10;;;7.10;99.90;;;7.73;100.00;99308.47;10409387;28;20230;-63
2024/02/01 17:24:37;;;;;;;23.30;20.80;;;7.20;99.90;;;7.78;100.00;99314.84;10404848;28;20243;-64
2024/02/01 17:29:43;;;;;;;24.30;21.77;;;7.20;99.90;;;7.83;100.00;99309.41;10401695;28;20712;-64
2024/02/01 17:34:46;;;;;;;19.77;17.73;;;7.30;99.90;;;7.87;100.00;99316.59;10401738;28;20236;-63
2024/02/01 17:39:50;;;;;;;23.30;20.70;;;7.30;99.90;;;7.87;100.00;99320.78;10424234;28;20715;-65
2024/02/01 17:44:55;;;;;;;20.70;18.63;;;7.30;99.90;;;7.93;100.00;99321.34;10409155;28;20229;-64
2024/02/01 17:49:58;;;;;;;16.77;15.17;;;7.30;99.90;;;7.92;100.00;99322.06;10413391;28;20251;-65
2024/02/01 17:55:05;;;;;;;17.20;15.43;;;7.30;99.90;;;7.90;100.00;99326.16;10410905;28;20260;-64
2024/02/01 18:00:16;;;;;;;18.77;16.73;;;7.30;99.90;;;7.89;100.00;99324.34;10412050;28;20661;-65
2024/02/01 18:05:20;;;;;;;19.90;17.80;;;7.30;99.90;;;7.88;100.00;99325.13;10414797;28;20658;-63
2024/02/01 18:10:35;;;;;;;18.57;16.77;;;7.30;99.90;;;7.82;100.00;99327.09;10406920;28;20699;-66
2024/02/01 18:16:05;;;;;;;20.80;18.60;;;7.20;99.90;;;7.66;100.00;99347.69;10415746;28;20229;-64
2024/02/01 18:21:17;;;;;;;24.93;22.30;;;7.00;99.90;;;7.54;100.00;99339.81;10411422;28;20697;-65
2024/02/01 18:26:23;;;;;;;28.63;24.27;;;6.90;99.90;;;7.44;100.00;99344.84;10408107;28;20687;-65
2024/02/01 18:31:29;;;;;;;26.17;23.57;;;6.80;99.90;;;7.30;100.00;99347.72;10401851;28;20232;-63
2024/02/01 18:36:33;;;;;;;25.47;22.93;;;6.60;99.90;;;7.17;100.00;99351.66;10394693;28;20225;-63
2024/02/01 18:41:38;;;;;;;35.10;29.43;;;6.50;99.90;;;6.97;100.00;99354.84;10415161;28;20320;-62
2024/02/01 18:46:48;;;;;;;28.63;24.80;;;6.30;99.90;;;6.87;100.00;99353.84;10420762;28;20236;-64
2024/02/01 18:56:57;;;;;;;25.70;23.13;;;6.10;99.90;;;6.56;100.00;99366.13;10349295;28;20325;-66
2024/02/01 19:02:04;;;;;;;27.20;24.23;;;6.00;99.90;;;6.66;100.00;99367.91;10349224;28;20717;-66
2024/02/01 19:07:12;;;;;;;46.13;35.00;;;6.00;99.90;;;6.56;100.00;99365.25;10351713;28;20591;-66
2024/02/01 19:12:30;;;;;;;46.40;34.80;;;6.00;99.90;;;6.52;100.00;99364.03;10358159;28;20230;-66
2024/02/01 19:17:36;;;;;;;33.27;27.60;;;6.00;99.90;;;6.59;100.00;99365.53;10349575;28;20307;-66
2024/02/01 19:22:41;;;;;;;33.13;26.40;;;6.00;99.90;;;6.62;100.00;99371.81;10362876;28;20230;-66
2024/02/01 19:27:45;;;;;;;40.40;31.37;;;6.10;99.90;;;6.71;100.00;99364.16;10338931;28;20366;-67
2024/02/01 19:32:51;;;;;;;46.97;34.30;;;6.20;99.90;;;6.75;100.00;99384.94;10322870;28;20230;-66
2024/02/01 19:37:59;;;;;;;41.23;32.00;;;6.20;99.90;;;6.85;100.00;99385.81;10350295;28;20241;-66
2024/02/01 19:43:04;;;;;;;38.43;30.37;;;6.30;99.90;;;6.89;100.00;99382.81;10320815;28;20226;-66
2024/02/01 19:48:09;;;;;;;43.63;32.97;;;6.30;99.90;;;6.91;100.00;99378.78;10349090;28;20226;-66
2024/02/01 19:53:12;;;;;;;40.60;33.20;;;6.30;99.90;;;6.90;100.00;99375.34;10338748;28;20239;-66
2024/02/01 19:58:15;;;;;;;40.17;31.17;;;6.30;99.90;;;6.84;100.00;99378.94;10336478;28;20280;-66
2024/02/01 20:03:24;;;;;;;42.17;31.43;;;6.20;99.90;;;6.77;100.00;99378.34;10335780;28;20261;-66
2024/02/01 20:08:27;;;;;;;42.47;30.90;;;6.20;99.90;;;6.84;100.00;99394.19;10332189;28;20607;-66
2024/02/01 20:13:31;;;;;;;46.23;34.70;;;6.30;99.90;;;6.90;100.00;99399.88;10336072;28;20242;-67
2024/02/01 20:18:36;;;;;;;41.60;32.23;;;6.30;99.90;;;6.96;100.00;99411.53;10333914;28;20227;-67
2024/02/01 20:23:40;;;;;;;33.23;24.87;;;6.30;99.90;;;6.90;100.00;99404.97;10333134;28;20230;-66
2024/02/01 20:28:56;;;;;;;32.83;24.30;;;6.30;99.90;;;6.93;100.00;99407.81;10353047;28;20233;-66
2024/02/01 20:34:07;;;;;;;31.40;24.37;;;6.20;99.90;;;6.79;100.00;99413.19;10349496;28;20234;-66
2024/02/01 20:39:37;;;;;;;35.33;27.13;;;6.10;99.90;;;6.62;100.00;99407.38;10350291;28;20229;-66
2024/02/01 20:44:41;;;;;;;31.13;23.50;;;6.00;99.90;;;6.59;100.00;99396.03;10349692;28;20254;-65
2024/02/01 20:49:45;;;;;;;36.03;30.10;;;6.00;99.90;;;6.62;100.00;99397.19;10348059;28;20226;-66
2024/02/01 20:55:09;;;;;;;37.47;30.23;;;6.00;99.90;;;6.58;100.00;99386.59;10348091;28;20285;-65
2024/02/01 21:00:19;;;;;;;28.93;24.93;;;6.00;99.90;;;6.65;100.00;99386.44;10348467;28;20234;-65
2024/02/01 21:05:41;;;;;;;30.00;25.70;;;6.10;99.90;;;6.70;100.00;99396.31;10352691;28;20241;-66
2024/02/01 21:10:48;;;;;;;30.90;26.67;;;6.10;99.90;;;6.74;100.00;99397.50;10351759;28;20387;-66
2024/02/01 21:15:54;;;;;;;33.67;29.03;;;6.20;99.90;;;6.74;100.00;99418.72;10355514;28;20607;-66
2024/02/01 21:21:04;;;;;;;43.80;34.33;;;6.20;99.90;;;6.69;100.00;99424.09;10354737;28;20234;-65
2024/02/01 21:26:26;;;;;;;43.20;34.43;;;6.00;99.90;;;6.54;100.00;99428.56;10355918;28;20218;-66
2024/02/01 21:31:54;;;;;;;48.37;37.53;;;5.90;99.90;;;6.43;100.00;99424.97;10358656;28;20230;-66
2024/02/01 21:37:06;;;;;;;35.27;29.30;;;5.80;99.90;;;6.34;100.00;99428.25;10358330;28;20226;-65
2024/02/01 21:42:59;;;;;;;34.10;27.73;;;5.70;99.90;;;6.37;100.00;99426.03;10358013;28;20317;-66
2024/02/01 21:48:02;;;;;;;29.33;25.00;;;5.80;99.90;;;6.43;100.00;99431.72;10365633;28;20257;-67
2024/02/01 21:53:08;;;;;;;30.07;26.17;;;5.80;99.90;;;6.42;100.00;99423.19;10364766;28;20225;-67